Karla A — TCCR8 — position and weather

sailwx.info

Track history (hours):
 
Tides and Currents Weather Stations Pressure Air Temp Water Temp Dewpoint Dewpoint Depression Visibility Wind Speed Wind Dir Waves Ship Positions

Karla A

Last reported at 2016-Aug-29 00:27 UTC. Time now 2016-Aug-29 05:26 UTC.
Position N 38°56' E 009°03'.

Length 155 m; draft 8.9 m.

Type: Ship (hazmat cat A). MMSI: 271000744.

Date/timePositionNaut miles runAvg speedWind from/ knotsBaromVisibWave heightAir tempDewpointWater temp
2016-Aug-29 00:27N 38°56' E 009°03'1112.1
2016-Aug-28 23:32N 39°06' E 009°07'7 7.0
2016-Aug-28 22:33N 39°13' E 009°04'0 0.0
2016-Aug-28 19:33N 39°13' E 009°04'0 0.0
2016-Aug-28 18:32N 39°13' E 009°04'0 0.0
2016-Aug-28 17:32N 39°13' E 009°04'0 0.0
2016-Aug-28 16:33N 39°13' E 009°04'4 3.9
2016-Aug-28 15:33N 39°09' E 009°06'1211.7
2016-Aug-28 14:33N 39°01' E 009°17'1111.3
2016-Aug-28 13:33N 38°55' E 009°29'1311.7
2016-Aug-28 12:26N 38°48' E 009°44'4712.1
2016-Aug-28 08:33N 38°23' E 010°35'6012.0
2016-Aug-28 03:31N 37°50' E 011°39'1211.9
2016-Aug-28 02:33N 37°44' E 011°51'1211.9
2016-Aug-28 01:34N 37°38' E 012°04'1512.0
2016-Aug-28 00:19N 37°30' E 012°20'912.2
2016-Aug-27 23:33N 37°25' E 012°30'1212.0
2016-Aug-27 22:33N 37°19' E 012°43'1212.4
2016-Aug-27 21:33N 37°14' E 012°58'1412.1
2016-Aug-27 20:23N 37°08' E 013°14'1012.0
2016-Aug-27 19:34N 37°04' E 013°25'1211.7
2016-Aug-27 18:34N 36°59' E 013°38'1211.6
2016-Aug-27 17:34N 36°54' E 013°51'1212.0
2016-Aug-27 16:33N 36°49' E 014°05'1212.2
2016-Aug-27 15:34N 36°44' E 014°19'1212.4
2016-Aug-27 14:34N 36°40' E 014°33'1412.4
2016-Aug-27 13:27N 36°35' E 014°50'43612.9
2016-Aug-26 03:32N 37°16' E 023°53'1414.7
2016-Aug-26 02:33N 37°28' E 024°02'1614.8
2016-Aug-26 01:29N 37°41' E 024°12'1314.4
2016-Aug-26 00:33N 37°50' E 024°26'  
Track history (hours):
 
Tides and Currents Weather Stations Pressure Air Temp Water Temp Dewpoint Dewpoint Depression Visibility Wind Speed Wind Dir Waves Ship Positions

Karla A

Last reported at 2016-Aug-29 00:27 UTC. Time now 2016-Aug-29 05:26 UTC.
Position N 38°56' E 009°03'.

Length 155 m; draft 8.9 m.

Type: Ship (hazmat cat A). MMSI: 271000744.

Date/timePositionNaut miles runAvg speedWind from/ knotsBaromVisibWave heightAir tempDewpointWater temp
2016-Aug-29 00:27N 38°56' E 009°03'1112.1
2016-Aug-28 23:32N 39°06' E 009°07'7 7.0
2016-Aug-28 22:33N 39°13' E 009°04'0 0.0
2016-Aug-28 19:33N 39°13' E 009°04'0 0.0
2016-Aug-28 18:32N 39°13' E 009°04'0 0.0
2016-Aug-28 17:32N 39°13' E 009°04'0 0.0
2016-Aug-28 16:33N 39°13' E 009°04'4 3.9
2016-Aug-28 15:33N 39°09' E 009°06'1211.7
2016-Aug-28 14:33N 39°01' E 009°17'1111.3
2016-Aug-28 13:33N 38°55' E 009°29'1311.7
2016-Aug-28 12:26N 38°48' E 009°44'4712.1
2016-Aug-28 08:33N 38°23' E 010°35'6012.0
2016-Aug-28 03:31N 37°50' E 011°39'1211.9
2016-Aug-28 02:33N 37°44' E 011°51'1211.9
2016-Aug-28 01:34N 37°38' E 012°04'1512.0
2016-Aug-28 00:19N 37°30' E 012°20'912.2
2016-Aug-27 23:33N 37°25' E 012°30'1212.0
2016-Aug-27 22:33N 37°19' E 012°43'1212.4
2016-Aug-27 21:33N 37°14' E 012°58'1412.1
2016-Aug-27 20:23N 37°08' E 013°14'1012.0
2016-Aug-27 19:34N 37°04' E 013°25'1211.7
2016-Aug-27 18:34N 36°59' E 013°38'1211.6
2016-Aug-27 17:34N 36°54' E 013°51'1212.0
2016-Aug-27 16:33N 36°49' E 014°05'1212.2
2016-Aug-27 15:34N 36°44' E 014°19'1212.4
2016-Aug-27 14:34N 36°40' E 014°33'1412.4
2016-Aug-27 13:27N 36°35' E 014°50'43612.9
2016-Aug-26 03:32N 37°16' E 023°53'1414.7
2016-Aug-26 02:33N 37°28' E 024°02'1614.8
2016-Aug-26 01:29N 37°41' E 024°12'1314.4
2016-Aug-26 00:33N 37°50' E 024°26'  

Dump ship's entire track history